createdAt,value
2023-11-23T00:00:13.158Z,1.20
2023-11-23T00:02:41.278Z,1.20
2023-11-23T00:05:12.201Z,1.30
2023-11-23T00:07:42.116Z,1.30
2023-11-23T00:10:11.530Z,1.40
2023-11-23T00:12:38.672Z,1.40
2023-11-23T00:15:06.628Z,1.40
2023-11-23T00:17:33.532Z,1.40
2023-11-23T00:20:01.132Z,1.40
2023-11-23T00:22:27.913Z,1.40
2023-11-23T00:24:55.550Z,1.40
2023-11-23T00:27:22.414Z,1.30
2023-11-23T00:29:49.263Z,1.30
2023-11-23T00:32:16.522Z,1.30
2023-11-23T00:34:44.673Z,1.30
2023-11-23T00:37:11.896Z,1.30
2023-11-23T00:39:38.645Z,1.20
2023-11-23T00:42:05.709Z,1.30
2023-11-23T00:44:32.616Z,1.30
2023-11-23T00:47:00.227Z,1.30
2023-11-23T00:49:31.057Z,1.30
2023-11-23T00:51:57.897Z,1.30
2023-11-23T00:54:25.141Z,1.40
2023-11-23T00:57:02.633Z,1.40
2023-11-23T00:59:29.711Z,1.50
2023-11-23T01:01:56.861Z,1.50
2023-11-23T01:04:23.803Z,1.60
2023-11-23T01:06:50.745Z,1.60
2023-11-23T01:09:19.135Z,1.60
2023-11-23T01:11:45.926Z,1.70
2023-11-23T01:14:12.799Z,1.60
2023-11-23T01:16:39.908Z,1.60
2023-11-23T01:19:06.878Z,1.60
2023-11-23T01:21:33.878Z,1.50
2023-11-23T01:24:00.908Z,1.50
2023-11-23T01:26:27.784Z,1.40
2023-11-23T01:28:54.567Z,1.40
2023-11-23T01:31:21.585Z,1.30
2023-11-23T01:33:48.502Z,1.30
2023-11-23T01:36:17.751Z,1.20
2023-11-23T01:38:45.135Z,1.20
2023-11-23T01:41:11.998Z,1.10
2023-11-23T01:43:38.758Z,1.10
2023-11-23T01:46:05.887Z,1.10
2023-11-23T01:48:34.104Z,1.00
2023-11-23T01:51:18.508Z,1.00
2023-11-23T01:53:45.638Z,1.00
2023-11-23T01:56:13.355Z,1.00
2023-11-23T01:58:40.744Z,1.00
2023-11-23T02:01:07.778Z,0.90
2023-11-23T02:03:34.986Z,0.90
2023-11-23T02:06:01.981Z,0.90
2023-11-23T02:08:29.014Z,0.90
2023-11-23T02:10:55.971Z,0.80
2023-11-23T02:13:23.646Z,0.80
2023-11-23T02:15:50.599Z,0.80
2023-11-23T02:18:17.628Z,0.70
2023-11-23T02:20:47.956Z,0.70
2023-11-23T02:23:14.979Z,0.70
2023-11-23T02:25:42.897Z,0.60
2023-11-23T02:28:10.564Z,0.60
2023-11-23T02:30:37.805Z,0.60
2023-11-23T02:33:05.439Z,0.60
2023-11-23T02:35:33.004Z,0.60
2023-11-23T02:38:00.189Z,0.60
2023-11-23T02:40:27.730Z,0.60
2023-11-23T02:42:54.607Z,0.60
2023-11-23T02:45:22.199Z,0.50
2023-11-23T02:47:50.526Z,0.40
2023-11-23T02:50:17.490Z,0.40
2023-11-23T02:52:44.657Z,0.40
2023-11-23T02:55:12.450Z,0.50
2023-11-23T02:57:39.494Z,0.40
2023-11-23T03:00:13.477Z,0.40
2023-11-23T03:02:40.842Z,0.40
2023-11-23T03:05:08.494Z,0.40
2023-11-23T03:07:35.367Z,0.40
2023-11-23T03:10:02.547Z,0.40
2023-11-23T03:12:30.157Z,0.40
2023-11-23T03:14:57.249Z,0.40
2023-11-23T03:17:24.354Z,0.40
2023-11-23T03:19:51.132Z,0.30
2023-11-23T03:22:17.932Z,0.30
2023-11-23T03:24:45.993Z,0.30
2023-11-23T03:27:19.752Z,0.30
2023-11-23T03:29:46.702Z,0.30
2023-11-23T03:32:13.581Z,0.30
2023-11-23T03:34:40.430Z,0.30
2023-11-23T03:37:08.105Z,0.30
2023-11-23T03:39:35.294Z,0.30
2023-11-23T03:42:02.298Z,0.30
2023-11-23T03:44:29.372Z,0.30
2023-11-23T03:46:56.139Z,0.30
2023-11-23T03:49:22.913Z,0.20
2023-11-23T03:51:49.982Z,0.20
2023-11-23T03:54:16.854Z,0.20
2023-11-23T03:56:43.633Z,0.20
2023-11-23T03:59:10.498Z,0.20
2023-11-23T04:01:47.392Z,0.20
2023-11-23T04:04:14.638Z,0.20
2023-11-23T04:06:41.888Z,0.30
2023-11-23T04:09:12.816Z,0.20
2023-11-23T04:11:40.274Z,0.20
2023-11-23T04:14:07.760Z,0.20
2023-11-23T04:16:34.687Z,0.10
2023-11-23T04:19:01.485Z,0.10
2023-11-23T04:21:28.856Z,0.10
2023-11-23T04:23:55.600Z,0.10
2023-11-23T04:26:22.348Z,0.10
2023-11-23T04:28:50.680Z,0.10
2023-11-23T04:31:17.464Z,0.20
2023-11-23T04:33:44.365Z,0.10
2023-11-23T04:36:12.558Z,0.10
2023-11-23T04:39:02.761Z,0.10
2023-11-23T04:41:39.007Z,0.10
2023-11-23T04:44:06.004Z,0.10
2023-11-23T04:46:34.157Z,0.00
2023-11-23T04:49:01.224Z,0.00
2023-11-23T04:51:28.015Z,0.00
2023-11-23T04:53:54.883Z,0.00
2023-11-23T04:56:21.716Z,0.00
2023-11-23T04:58:48.516Z,0.10
2023-11-23T05:01:15.401Z,0.00
2023-11-23T05:03:42.355Z,0.00
2023-11-23T05:06:09.504Z,0.00
2023-11-23T05:08:38.131Z,0.00
2023-11-23T05:11:05.060Z,0.00
2023-11-23T05:13:31.823Z,0.00
2023-11-23T05:15:58.631Z,0.00
2023-11-23T05:18:25.478Z,0.00
2023-11-23T05:20:52.487Z,0.00
2023-11-23T05:23:19.347Z,0.00
2023-11-23T05:25:46.158Z,0.00
2023-11-23T05:28:12.970Z,0.00
2023-11-23T05:31:04.820Z,0.10
2023-11-23T05:33:31.774Z,0.10
2023-11-23T05:35:58.750Z,0.10
2023-11-23T05:38:26.294Z,0.10
2023-11-23T05:40:53.410Z,0.10
2023-11-23T05:43:20.713Z,0.10
2023-11-23T05:45:47.538Z,0.10
2023-11-23T05:48:14.484Z,0.20
2023-11-23T05:50:44.789Z,0.20
2023-11-23T05:53:11.681Z,0.30
2023-11-23T05:55:38.486Z,0.40
2023-11-23T05:58:05.211Z,0.40
2023-11-23T06:00:32.472Z,0.50
2023-11-23T06:02:59.455Z,0.50
2023-11-23T06:05:26.513Z,0.60
2023-11-23T06:07:53.355Z,0.50
2023-11-23T06:10:20.330Z,0.60
2023-11-23T06:12:47.173Z,0.60
2023-11-23T06:15:14.961Z,0.60
2023-11-23T06:17:41.974Z,0.60
2023-11-23T06:20:09.889Z,0.70
2023-11-23T06:22:36.771Z,0.90
2023-11-23T06:25:04.989Z,0.90
2023-11-23T06:27:33.337Z,0.90
2023-11-23T06:30:00.291Z,1.10
2023-11-23T06:32:27.438Z,1.10
2023-11-23T06:34:54.464Z,1.10
2023-11-23T06:37:21.241Z,1.10
2023-11-23T06:39:48.250Z,1.10
2023-11-23T06:42:15.224Z,1.20
2023-11-23T06:44:42.027Z,1.20
2023-11-23T06:47:08.962Z,1.30
2023-11-23T06:49:36.279Z,1.40
2023-11-23T06:52:03.232Z,1.40
2023-11-23T06:54:30.004Z,1.40
2023-11-23T06:56:58.413Z,1.50
2023-11-23T06:59:25.448Z,1.50
2023-11-23T07:01:52.317Z,1.60
2023-11-23T07:04:19.148Z,1.60
2023-11-23T07:06:45.915Z,1.70
2023-11-23T07:09:14.972Z,1.80
2023-11-23T07:11:41.745Z,1.90
2023-11-23T07:14:08.540Z,1.90
2023-11-23T07:16:37.434Z,1.90
2023-11-23T07:19:05.208Z,1.90
2023-11-23T07:21:32.209Z,2.00
2023-11-23T07:23:59.266Z,2.00
2023-11-23T07:26:26.045Z,2.10
2023-11-23T07:28:54.717Z,2.20
2023-11-23T07:31:21.591Z,2.10
2023-11-23T07:33:50.807Z,2.20
2023-11-23T07:36:19.237Z,2.20
2023-11-23T07:38:46.472Z,2.20
2023-11-23T07:41:13.370Z,2.30
2023-11-23T07:43:40.345Z,2.40
2023-11-23T07:46:07.241Z,2.40
2023-11-23T07:48:34.314Z,2.50
2023-11-23T07:51:01.414Z,2.50
2023-11-23T07:53:32.036Z,2.60
2023-11-23T07:55:58.911Z,2.60
2023-11-23T07:58:25.819Z,2.50
2023-11-23T08:00:53.274Z,2.50
2023-11-23T08:03:20.267Z,2.60
2023-11-23T08:05:47.299Z,2.60
2023-11-23T08:08:14.704Z,2.60
2023-11-23T08:10:41.599Z,2.70
2023-11-23T08:13:08.829Z,2.70
2023-11-23T08:15:35.804Z,2.70
2023-11-23T08:18:07.796Z,2.80
2023-11-23T08:20:37.767Z,2.90
2023-11-23T08:23:05.341Z,2.90
2023-11-23T08:25:32.102Z,2.90
2023-11-23T08:27:58.991Z,2.90
2023-11-23T08:30:25.986Z,2.90
2023-11-23T08:32:53.007Z,3.00
2023-11-23T08:35:20.467Z,3.10
2023-11-23T08:37:47.632Z,3.10
2023-11-23T08:40:14.838Z,3.20
2023-11-23T08:42:42.019Z,3.30
2023-11-23T08:45:09.851Z,3.40
2023-11-23T08:47:36.654Z,3.50
2023-11-23T08:50:04.012Z,3.50
2023-11-23T08:52:30.834Z,3.50
2023-11-23T08:54:57.740Z,3.60
2023-11-23T08:57:24.487Z,3.60
2023-11-23T08:59:51.276Z,3.70
2023-11-23T09:02:20.873Z,3.70
2023-11-23T09:04:49.643Z,3.70
2023-11-23T09:07:17.567Z,3.70
2023-11-23T09:09:44.658Z,3.70
2023-11-23T09:12:12.818Z,3.70
2023-11-23T09:14:47.190Z,3.70
2023-11-23T09:17:17.453Z,3.80
2023-11-23T09:19:44.292Z,3.80
2023-11-23T09:22:11.881Z,3.90
2023-11-23T09:24:39.395Z,4.00
2023-11-23T09:27:11.284Z,4.00
2023-11-23T09:29:38.387Z,4.10
2023-11-23T09:32:06.587Z,4.10
2023-11-23T09:34:33.505Z,4.10
2023-11-23T09:37:00.541Z,4.10
2023-11-23T09:39:30.284Z,4.10
2023-11-23T09:41:59.796Z,4.20
2023-11-23T09:44:27.490Z,4.30
2023-11-23T09:46:57.090Z,4.30
2023-11-23T09:49:24.946Z,4.30
2023-11-23T09:51:52.722Z,4.30
2023-11-23T09:54:24.694Z,4.30
2023-11-23T09:56:52.116Z,4.30
2023-11-23T09:59:19.016Z,4.30
2023-11-23T10:01:49.035Z,4.30
2023-11-23T10:04:17.115Z,4.30
2023-11-23T10:06:44.189Z,4.30
2023-11-23T10:09:16.183Z,4.30
2023-11-23T10:11:44.030Z,4.40
2023-11-23T10:14:12.671Z,4.40
2023-11-23T10:16:39.452Z,4.40
2023-11-23T10:19:06.502Z,4.50
2023-11-23T10:21:33.387Z,4.50
2023-11-23T10:24:09.858Z,4.60
2023-11-23T10:26:36.719Z,4.60
2023-11-23T10:29:04.938Z,4.60
2023-11-23T10:31:32.212Z,4.50
2023-11-23T10:34:00.383Z,4.60
2023-11-23T10:36:29.952Z,4.60
2023-11-23T10:38:57.891Z,4.50
2023-11-23T10:41:24.677Z,4.60
2023-11-23T10:43:51.502Z,4.60
2023-11-23T10:46:19.789Z,4.60
2023-11-23T10:48:48.051Z,4.70
2023-11-23T10:51:16.030Z,4.80
2023-11-23T10:53:43.279Z,4.80
2023-11-23T10:56:22.885Z,4.90
2023-11-23T10:58:53.679Z,4.80
2023-11-23T11:01:23.713Z,4.80
2023-11-23T11:03:51.496Z,4.80
2023-11-23T11:06:19.414Z,4.80
2023-11-23T11:08:51.113Z,4.70
2023-11-23T11:11:21.748Z,4.80
2023-11-23T11:13:49.299Z,4.80
2023-11-23T11:16:21.747Z,4.90
2023-11-23T11:18:53.573Z,4.80
2023-11-23T11:21:27.129Z,4.90
2023-11-23T11:23:55.508Z,4.90
2023-11-23T11:26:27.046Z,5.00
2023-11-23T11:28:55.998Z,4.90
2023-11-23T11:31:30.898Z,4.90
2023-11-23T11:33:57.888Z,4.90
2023-11-23T11:36:29.629Z,5.00
2023-11-23T11:39:00.720Z,5.10
2023-11-23T11:41:31.031Z,5.00
2023-11-23T11:43:59.746Z,5.00
2023-11-23T11:46:29.686Z,5.20
2023-11-23T11:49:00.678Z,5.20
2023-11-23T11:51:29.919Z,5.30
2023-11-23T11:53:57.581Z,5.30
2023-11-23T11:56:24.509Z,5.30
2023-11-23T11:58:51.741Z,5.30
2023-11-23T12:01:19.231Z,5.30
2023-11-23T12:03:47.432Z,5.20
2023-11-23T12:06:14.682Z,5.20
2023-11-23T12:08:41.631Z,5.20
2023-11-23T12:11:08.519Z,5.10
2023-11-23T12:13:36.224Z,5.10
2023-11-23T12:16:03.449Z,5.10
2023-11-23T12:18:36.288Z,5.10
2023-11-23T12:21:04.495Z,5.10
2023-11-23T12:23:39.843Z,5.00
2023-11-23T12:26:06.845Z,5.10
2023-11-23T12:28:34.309Z,5.10
2023-11-23T12:31:01.224Z,5.20
2023-11-23T12:33:28.498Z,5.20
2023-11-23T12:35:55.955Z,5.10
2023-11-23T12:38:22.813Z,5.10
2023-11-23T12:40:50.808Z,5.00
2023-11-23T12:43:19.096Z,5.10
2023-11-23T12:45:46.472Z,5.10
2023-11-23T12:48:13.432Z,5.20
2023-11-23T12:50:40.283Z,5.20
2023-11-23T12:53:07.719Z,5.20
2023-11-23T12:55:35.174Z,5.20
2023-11-23T12:58:02.208Z,5.20
2023-11-23T13:00:37.456Z,5.30
2023-11-23T13:03:05.770Z,5.20
2023-11-23T13:05:36.219Z,5.20
2023-11-23T13:08:03.467Z,5.20
2023-11-23T13:10:30.934Z,5.30
2023-11-23T13:12:57.897Z,5.30
2023-11-23T13:15:27.456Z,5.30
2023-11-23T13:17:55.383Z,5.30
2023-11-23T13:20:25.137Z,5.30
2023-11-23T13:22:52.494Z,5.30
2023-11-23T13:25:21.714Z,5.30
2023-11-23T13:27:50.357Z,5.30
2023-11-23T13:30:18.065Z,5.40
2023-11-23T13:32:47.486Z,5.40
2023-11-23T13:35:14.535Z,5.50
2023-11-23T13:37:41.791Z,5.50
2023-11-23T13:40:10.393Z,5.50
2023-11-23T13:42:37.393Z,5.50
2023-11-23T13:45:06.243Z,5.60
2023-11-23T13:47:33.136Z,5.50
2023-11-23T13:49:59.949Z,5.50
2023-11-23T13:52:26.942Z,5.50
2023-11-23T13:54:53.740Z,5.50
2023-11-23T13:57:20.752Z,5.50
2023-11-23T13:59:47.634Z,5.50
2023-11-23T14:02:17.176Z,5.50
2023-11-23T14:04:44.320Z,5.60
2023-11-23T14:07:11.136Z,5.60
2023-11-23T14:09:38.012Z,5.70
2023-11-23T14:12:05.432Z,5.80
2023-11-23T14:14:32.269Z,5.90
2023-11-23T14:16:59.162Z,5.80
2023-11-23T14:19:26.286Z,5.80
2023-11-23T14:21:55.157Z,5.80
2023-11-23T14:24:22.328Z,5.80
2023-11-23T14:26:50.821Z,5.80
2023-11-23T14:29:17.971Z,5.80
2023-11-23T14:31:51.080Z,5.80
2023-11-23T14:34:18.145Z,5.80
2023-11-23T14:36:45.717Z,5.80
2023-11-23T14:39:17.258Z,5.80
2023-11-23T14:41:44.758Z,5.80
2023-11-23T14:44:18.464Z,5.80
2023-11-23T14:46:50.651Z,5.80
2023-11-23T14:49:19.641Z,5.80
2023-11-23T14:51:47.671Z,5.70
2023-11-23T14:54:19.078Z,5.70
2023-11-23T14:56:52.963Z,5.70
2023-11-23T14:59:20.335Z,5.70
2023-11-23T15:01:47.205Z,5.70
2023-11-23T15:04:14.624Z,5.70
2023-11-23T15:06:41.518Z,5.60
2023-11-23T15:09:08.559Z,5.60
2023-11-23T15:11:35.389Z,5.70
2023-11-23T15:14:02.179Z,5.70
2023-11-23T15:16:29.247Z,5.70
2023-11-23T15:18:56.630Z,5.70
2023-11-23T15:21:23.942Z,5.70
2023-11-23T15:23:51.583Z,5.70
2023-11-23T15:26:18.502Z,5.70
2023-11-23T15:28:47.065Z,5.70
2023-11-23T15:31:16.922Z,5.70
2023-11-23T15:33:44.003Z,5.70
2023-11-23T15:36:12.259Z,5.70
2023-11-23T15:38:39.376Z,5.80
2023-11-23T15:41:06.474Z,5.70
2023-11-23T15:43:33.700Z,5.80
2023-11-23T15:46:00.590Z,5.80
2023-11-23T15:48:27.467Z,5.80
2023-11-23T15:50:54.286Z,5.80
2023-11-23T15:53:21.221Z,5.80
2023-11-23T15:55:51.735Z,5.80
2023-11-23T15:58:19.184Z,5.80
2023-11-23T16:00:46.104Z,5.80
2023-11-23T16:03:14.201Z,5.80
2023-11-23T16:05:41.449Z,5.90
2023-11-23T16:08:08.767Z,5.90
2023-11-23T16:10:35.672Z,5.90
2023-11-23T16:13:02.519Z,6.00
2023-11-23T16:15:29.662Z,6.00
2023-11-23T16:17:59.170Z,6.00
2023-11-23T16:20:26.205Z,6.00
2023-11-23T16:22:53.333Z,6.00
2023-11-23T16:25:20.147Z,6.00
2023-11-23T16:27:47.236Z,6.10
2023-11-23T16:30:15.219Z,6.20
2023-11-23T16:32:43.619Z,6.20
2023-11-23T16:35:14.035Z,6.10
2023-11-23T16:37:40.987Z,6.20
2023-11-23T16:40:11.184Z,6.20
2023-11-23T16:42:43.154Z,6.20
2023-11-23T16:45:11.197Z,6.30
2023-11-23T16:47:38.351Z,6.20
2023-11-23T16:50:05.713Z,6.30
2023-11-23T16:52:33.530Z,6.30
2023-11-23T16:55:01.158Z,6.30
2023-11-23T16:57:28.166Z,6.40
2023-11-23T16:59:55.365Z,6.40
2023-11-23T17:02:22.830Z,6.40
2023-11-23T17:04:52.898Z,6.50
2023-11-23T17:07:24.547Z,6.50
2023-11-23T17:09:53.995Z,6.50
2023-11-23T17:12:20.874Z,6.50
2023-11-23T17:14:47.757Z,6.50
2023-11-23T17:17:14.689Z,6.60
2023-11-23T17:19:41.645Z,6.60
2023-11-23T17:22:08.581Z,6.60
2023-11-23T17:24:37.318Z,6.60
2023-11-23T17:27:05.489Z,6.60
2023-11-23T17:29:32.340Z,6.70
2023-11-23T17:31:59.262Z,6.70
2023-11-23T17:34:27.268Z,6.70
2023-11-23T17:36:54.451Z,6.70
2023-11-23T17:39:25.526Z,6.70
2023-11-23T17:41:54.615Z,6.80
2023-11-23T17:44:21.702Z,6.80
2023-11-23T17:46:51.335Z,6.80
2023-11-23T17:49:18.410Z,6.80
2023-11-23T17:51:46.317Z,6.90
2023-11-23T17:54:16.129Z,6.90
2023-11-23T17:56:43.167Z,6.90
2023-11-23T17:59:25.338Z,6.90
2023-11-23T18:01:58.973Z,6.80
2023-11-23T18:04:27.404Z,6.90
2023-11-23T18:06:55.737Z,6.90
2023-11-23T18:09:22.841Z,7.00
2023-11-23T18:11:50.228Z,7.00
2023-11-23T18:14:17.611Z,7.00
2023-11-23T18:16:45.134Z,7.10
2023-11-23T18:19:12.004Z,7.10
2023-11-23T18:21:39.713Z,7.10
2023-11-23T18:24:06.794Z,7.10
2023-11-23T18:26:33.737Z,7.00
2023-11-23T18:29:00.614Z,7.00
2023-11-23T18:31:27.982Z,7.10
2023-11-23T18:33:54.942Z,7.10
2023-11-23T18:36:23.104Z,7.10
2023-11-23T18:38:50.081Z,7.10
2023-11-23T18:41:17.423Z,7.10
2023-11-23T18:43:44.359Z,7.10
2023-11-23T18:46:13.411Z,7.10
2023-11-23T18:48:40.525Z,7.10
2023-11-23T18:51:08.153Z,7.10
2023-11-23T18:53:35.224Z,7.20
2023-11-23T18:56:04.607Z,7.10
2023-11-23T18:58:31.628Z,7.10
2023-11-23T19:01:00.573Z,7.00
2023-11-23T19:03:27.944Z,7.00
2023-11-23T19:05:58.990Z,7.00
2023-11-23T19:08:26.220Z,6.90
2023-11-23T19:10:53.691Z,6.90
2023-11-23T19:13:21.329Z,6.90
2023-11-23T19:15:49.481Z,6.90
2023-11-23T19:18:17.717Z,6.90
2023-11-23T19:20:44.814Z,6.90
2023-11-23T19:23:12.006Z,7.00
2023-11-23T19:25:39.029Z,7.10
2023-11-23T19:28:06.762Z,7.10
2023-11-23T19:30:34.139Z,7.20
2023-11-23T19:33:06.178Z,7.20
2023-11-23T19:35:33.187Z,7.20
2023-11-23T19:38:00.359Z,7.30
2023-11-23T19:40:27.366Z,7.30
2023-11-23T19:42:56.431Z,7.30
2023-11-23T19:45:23.633Z,7.30
2023-11-23T19:47:51.147Z,7.30
2023-11-23T19:50:18.970Z,7.30
2023-11-23T19:52:46.227Z,7.30
2023-11-23T19:55:13.191Z,7.40
2023-11-23T19:57:40.719Z,7.40
2023-11-23T20:00:08.418Z,7.40
2023-11-23T20:02:36.174Z,7.40
2023-11-23T20:05:08.732Z,7.40
2023-11-23T20:07:35.779Z,7.40
2023-11-23T20:10:02.771Z,7.40
2023-11-23T20:12:30.327Z,7.30
2023-11-23T20:14:57.346Z,7.30
2023-11-23T20:17:26.240Z,7.30
2023-11-23T20:19:53.131Z,7.40
2023-11-23T20:22:20.064Z,7.40
2023-11-23T20:24:47.306Z,7.30
2023-11-23T20:27:14.280Z,7.30
2023-11-23T20:29:41.377Z,7.30
2023-11-23T20:32:08.573Z,7.20
2023-11-23T20:34:35.558Z,7.30
2023-11-23T20:37:02.462Z,7.30
2023-11-23T20:39:32.353Z,7.30
2023-11-23T20:41:59.409Z,7.30
2023-11-23T20:44:27.101Z,7.30
2023-11-23T20:46:56.734Z,7.20
2023-11-23T20:49:26.224Z,7.20
2023-11-23T20:51:53.964Z,7.20
2023-11-23T20:54:21.249Z,7.20
2023-11-23T20:56:48.662Z,7.20
2023-11-23T20:59:15.916Z,7.20
2023-11-23T21:01:43.309Z,7.20
2023-11-23T21:04:11.781Z,7.10
2023-11-23T21:06:55.555Z,7.20
2023-11-23T21:09:28.871Z,7.20
2023-11-23T21:11:55.948Z,7.20
2023-11-23T21:14:24.617Z,7.20
2023-11-23T21:16:52.128Z,7.10
2023-11-23T21:19:19.281Z,7.10
2023-11-23T21:21:46.319Z,7.10
2023-11-23T21:24:14.380Z,7.10
2023-11-23T21:26:41.621Z,7.10
2023-11-23T21:29:10.665Z,7.10
2023-11-23T21:31:38.250Z,7.10
2023-11-23T21:34:05.325Z,7.10
2023-11-23T21:36:33.558Z,7.10
2023-11-23T21:39:00.771Z,7.20
2023-11-23T21:41:27.603Z,7.20
2023-11-23T21:43:54.457Z,7.20
2023-11-23T21:46:21.904Z,7.20
2023-11-23T21:48:49.515Z,7.20
2023-11-23T21:51:21.385Z,7.20
2023-11-23T21:53:48.570Z,7.20
2023-11-23T21:56:15.477Z,7.20
2023-11-23T21:58:42.306Z,7.20
2023-11-23T22:01:09.230Z,7.20
2023-11-23T22:03:36.344Z,7.10
2023-11-23T22:06:03.425Z,7.20
2023-11-23T22:08:30.241Z,7.20
2023-11-23T22:10:58.424Z,7.10
2023-11-23T22:13:25.278Z,7.20
2023-11-23T22:15:52.546Z,7.10
2023-11-23T22:18:20.068Z,7.20
2023-11-23T22:20:47.064Z,7.10
2023-11-23T22:23:14.202Z,7.20
2023-11-23T22:25:42.509Z,7.10
2023-11-23T22:28:10.277Z,7.10
2023-11-23T22:30:39.050Z,7.10
2023-11-23T22:33:08.127Z,7.10
2023-11-23T22:35:35.481Z,7.10
2023-11-23T22:38:07.498Z,7.10
2023-11-23T22:40:36.073Z,7.10
2023-11-23T22:43:03.642Z,7.00
2023-11-23T22:45:31.008Z,7.00
2023-11-23T22:47:59.185Z,7.00
2023-11-23T22:50:26.050Z,7.00
2023-11-23T22:52:52.884Z,7.00
2023-11-23T22:55:19.755Z,6.90
2023-11-23T22:57:49.655Z,6.90
2023-11-23T23:00:25.522Z,6.90
2023-11-23T23:02:52.717Z,6.80
2023-11-23T23:05:19.831Z,6.80
2023-11-23T23:07:46.876Z,6.90
2023-11-23T23:10:15.157Z,6.90
2023-11-23T23:12:42.032Z,6.90
2023-11-23T23:15:10.290Z,6.80
2023-11-23T23:17:37.186Z,6.90
2023-11-23T23:20:07.314Z,6.90
2023-11-23T23:22:34.581Z,6.90
2023-11-23T23:25:03.495Z,6.90
2023-11-23T23:27:30.345Z,6.90
2023-11-23T23:29:57.368Z,6.90
2023-11-23T23:32:24.875Z,6.90
2023-11-23T23:34:52.312Z,6.90
2023-11-23T23:37:19.127Z,6.90
2023-11-23T23:39:46.011Z,6.90
2023-11-23T23:42:12.900Z,6.90
2023-11-23T23:44:39.815Z,7.00
2023-11-23T23:47:08.816Z,7.00
2023-11-23T23:49:37.402Z,7.00
2023-11-23T23:52:04.733Z,7.00
2023-11-23T23:54:31.639Z,7.10
2023-11-23T23:56:58.936Z,7.10
2023-11-23T23:59:26.072Z,7.10
